sensor_id;sensor_type;location;lat;lon;timestamp;P1;durP1;ratioP1;P2;durP2;ratioP2
7683;SDS011;3884;48.616;12.872;2023-01-28T00:01:25;33.33;;;23.23;;
7683;SDS011;3884;48.616;12.872;2023-01-28T00:03:52;35.17;;;23.50;;
7683;SDS011;3884;48.616;12.872;2023-01-28T00:06:19;28.77;;;19.67;;
7683;SDS011;3884;48.616;12.872;2023-01-28T00:08:47;30.47;;;20.00;;
7683;SDS011;3884;48.616;12.872;2023-01-28T00:11:14;27.77;;;20.10;;
7683;SDS011;3884;48.616;12.872;2023-01-28T00:13:41;29.67;;;20.60;;
7683;SDS011;3884;48.616;12.872;2023-01-28T00:16:10;29.27;;;19.90;;
7683;SDS011;3884;48.616;12.872;2023-01-28T00:18:37;28.90;;;20.23;;
7683;SDS011;3884;48.616;12.872;2023-01-28T00:21:05;26.27;;;18.97;;
7683;SDS011;3884;48.616;12.872;2023-01-28T00:23:34;27.97;;;21.83;;
7683;SDS011;3884;48.616;12.872;2023-01-28T00:26:02;27.60;;;20.77;;
7683;SDS011;3884;48.616;12.872;2023-01-28T00:28:31;28.67;;;20.53;;
7683;SDS011;3884;48.616;12.872;2023-01-28T00:31:04;29.83;;;19.53;;
7683;SDS011;3884;48.616;12.872;2023-01-28T00:33:33;29.23;;;20.57;;
7683;SDS011;3884;48.616;12.872;2023-01-28T00:36:01;30.13;;;21.47;;
7683;SDS011;3884;48.616;12.872;2023-01-28T00:38:30;30.00;;;20.00;;
7683;SDS011;3884;48.616;12.872;2023-01-28T00:41:05;26.77;;;19.13;;
7683;SDS011;3884;48.616;12.872;2023-01-28T00:43:33;27.53;;;20.00;;
7683;SDS011;3884;48.616;12.872;2023-01-28T00:46:01;27.43;;;19.27;;
7683;SDS011;3884;48.616;12.872;2023-01-28T00:48:28;25.03;;;17.33;;
7683;SDS011;3884;48.616;12.872;2023-01-28T00:50:57;25.63;;;18.43;;
7683;SDS011;3884;48.616;12.872;2023-01-28T00:53:24;24.17;;;17.77;;
7683;SDS011;3884;48.616;12.872;2023-01-28T00:55:51;24.80;;;17.53;;
7683;SDS011;3884;48.616;12.872;2023-01-28T00:58:19;25.17;;;17.77;;
7683;SDS011;3884;48.616;12.872;2023-01-28T01:00:48;25.87;;;19.37;;
7683;SDS011;3884;48.616;12.872;2023-01-28T01:03:16;25.03;;;17.30;;
7683;SDS011;3884;48.616;12.872;2023-01-28T01:05:43;24.60;;;17.20;;
7683;SDS011;3884;48.616;12.872;2023-01-28T01:08:12;26.47;;;18.27;;
7683;SDS011;3884;48.616;12.872;2023-01-28T01:10:39;24.80;;;17.80;;
7683;SDS011;3884;48.616;12.872;2023-01-28T01:13:06;24.13;;;18.23;;
7683;SDS011;3884;48.616;12.872;2023-01-28T01:15:34;25.60;;;17.93;;
7683;SDS011;3884;48.616;12.872;2023-01-28T01:18:02;24.40;;;17.53;;
7683;SDS011;3884;48.616;12.872;2023-01-28T01:20:31;25.67;;;18.40;;
7683;SDS011;3884;48.616;12.872;2023-01-28T01:23:04;21.93;;;16.97;;
7683;SDS011;3884;48.616;12.872;2023-01-28T01:25:32;24.30;;;17.23;;
7683;SDS011;3884;48.616;12.872;2023-01-28T01:27:59;24.83;;;17.13;;
7683;SDS011;3884;48.616;12.872;2023-01-28T01:30:26;25.67;;;18.10;;
7683;SDS011;3884;48.616;12.872;2023-01-28T01:32:53;25.83;;;18.40;;
7683;SDS011;3884;48.616;12.872;2023-01-28T01:35:21;25.17;;;18.27;;
7683;SDS011;3884;48.616;12.872;2023-01-28T01:37:48;26.77;;;19.27;;
7683;SDS011;3884;48.616;12.872;2023-01-28T01:40:15;27.50;;;19.33;;
7683;SDS011;3884;48.616;12.872;2023-01-28T01:42:44;25.37;;;17.90;;
7683;SDS011;3884;48.616;12.872;2023-01-28T01:45:11;26.03;;;18.03;;
7683;SDS011;3884;48.616;12.872;2023-01-28T01:47:41;26.43;;;18.57;;
7683;SDS011;3884;48.616;12.872;2023-01-28T01:50:15;26.57;;;18.43;;
7683;SDS011;3884;48.616;12.872;2023-01-28T01:52:48;25.60;;;18.37;;
7683;SDS011;3884;48.616;12.872;2023-01-28T01:55:20;27.90;;;19.67;;
7683;SDS011;3884;48.616;12.872;2023-01-28T01:57:53;27.50;;;19.00;;
7683;SDS011;3884;48.616;12.872;2023-01-28T02:00:22;25.67;;;18.73;;
7683;SDS011;3884;48.616;12.872;2023-01-28T02:02:49;28.37;;;19.53;;
7683;SDS011;3884;48.616;12.872;2023-01-28T02:05:19;23.07;;;17.77;;
7683;SDS011;3884;48.616;12.872;2023-01-28T02:07:49;28.23;;;19.07;;
7683;SDS011;3884;48.616;12.872;2023-01-28T02:10:19;28.43;;;19.17;;
7683;SDS011;3884;48.616;12.872;2023-01-28T02:12:48;26.60;;;19.03;;
7683;SDS011;3884;48.616;12.872;2023-01-28T02:15:25;27.40;;;18.90;;
7683;SDS011;3884;48.616;12.872;2023-01-28T02:17:54;28.77;;;19.00;;
7683;SDS011;3884;48.616;12.872;2023-01-28T02:20:24;26.07;;;19.00;;
7683;SDS011;3884;48.616;12.872;2023-01-28T02:23:08;27.30;;;19.23;;
7683;SDS011;3884;48.616;12.872;2023-01-28T02:29:06;27.30;;;19.17;;
7683;SDS011;3884;48.616;12.872;2023-01-28T02:31:42;27.57;;;18.87;;
7683;SDS011;3884;48.616;12.872;2023-01-28T02:34:15;28.77;;;19.50;;
7683;SDS011;3884;48.616;12.872;2023-01-28T02:36:50;28.03;;;19.63;;
7683;SDS011;3884;48.616;12.872;2023-01-28T02:39:23;30.53;;;20.20;;
7683;SDS011;3884;48.616;12.872;2023-01-28T02:41:55;28.73;;;20.37;;
7683;SDS011;3884;48.616;12.872;2023-01-28T02:44:25;29.93;;;20.80;;
7683;SDS011;3884;48.616;12.872;2023-01-28T02:46:53;28.30;;;20.43;;
7683;SDS011;3884;48.616;12.872;2023-01-28T02:49:38;30.07;;;19.97;;
7683;SDS011;3884;48.616;12.872;2023-01-28T02:52:14;30.70;;;21.77;;
7683;SDS011;3884;48.616;12.872;2023-01-28T02:55:12;30.87;;;21.23;;
7683;SDS011;3884;48.616;12.872;2023-01-28T02:57:46;29.00;;;20.23;;
7683;SDS011;3884;48.616;12.872;2023-01-28T03:00:26;28.33;;;20.17;;
7683;SDS011;3884;48.616;12.872;2023-01-28T03:03:02;31.77;;;20.60;;
7683;SDS011;3884;48.616;12.872;2023-01-28T03:05:37;30.00;;;20.03;;
7683;SDS011;3884;48.616;12.872;2023-01-28T03:08:30;27.27;;;19.30;;
7683;SDS011;3884;48.616;12.872;2023-01-28T03:11:23;30.07;;;20.77;;
7683;SDS011;3884;48.616;12.872;2023-01-28T03:14:09;28.90;;;19.83;;
7683;SDS011;3884;48.616;12.872;2023-01-28T03:16:58;27.30;;;19.23;;
7683;SDS011;3884;48.616;12.872;2023-01-28T03:19:44;27.70;;;19.67;;
7683;SDS011;3884;48.616;12.872;2023-01-28T03:22:30;29.67;;;19.77;;
7683;SDS011;3884;48.616;12.872;2023-01-28T03:25:18;27.03;;;19.57;;
7683;SDS011;3884;48.616;12.872;2023-01-28T03:28:05;30.77;;;21.07;;
7683;SDS011;3884;48.616;12.872;2023-01-28T03:30:57;27.60;;;19.57;;
7683;SDS011;3884;48.616;12.872;2023-01-28T03:33:52;28.30;;;20.13;;
7683;SDS011;3884;48.616;12.872;2023-01-28T03:36:38;30.10;;;21.73;;
7683;SDS011;3884;48.616;12.872;2023-01-28T03:39:38;30.17;;;20.93;;
7683;SDS011;3884;48.616;12.872;2023-01-28T03:42:09;29.93;;;21.53;;
7683;SDS011;3884;48.616;12.872;2023-01-28T03:45:07;30.20;;;19.93;;
7683;SDS011;3884;48.616;12.872;2023-01-28T03:47:35;29.33;;;20.40;;
7683;SDS011;3884;48.616;12.872;2023-01-28T03:50:08;28.70;;;20.33;;
7683;SDS011;3884;48.616;12.872;2023-01-28T03:52:48;28.07;;;19.07;;
7683;SDS011;3884;48.616;12.872;2023-01-28T03:55:26;29.50;;;19.90;;
7683;SDS011;3884;48.616;12.872;2023-01-28T03:57:53;26.50;;;19.00;;
7683;SDS011;3884;48.616;12.872;2023-01-28T04:00:21;28.73;;;19.53;;
7683;SDS011;3884;48.616;12.872;2023-01-28T04:02:48;27.97;;;19.63;;
7683;SDS011;3884;48.616;12.872;2023-01-28T04:05:19;29.63;;;20.30;;
7683;SDS011;3884;48.616;12.872;2023-01-28T04:07:48;27.47;;;20.67;;
7683;SDS011;3884;48.616;12.872;2023-01-28T04:10:37;27.40;;;19.80;;
7683;SDS011;3884;48.616;12.872;2023-01-28T04:13:11;28.03;;;19.40;;
7683;SDS011;3884;48.616;12.872;2023-01-28T04:15:38;29.10;;;20.80;;
7683;SDS011;3884;48.616;12.872;2023-01-28T04:18:05;29.10;;;19.70;;
7683;SDS011;3884;48.616;12.872;2023-01-28T04:20:34;30.30;;;20.00;;
7683;SDS011;3884;48.616;12.872;2023-01-28T04:23:02;28.77;;;20.30;;
7683;SDS011;3884;48.616;12.872;2023-01-28T04:25:29;29.80;;;19.07;;
7683;SDS011;3884;48.616;12.872;2023-01-28T04:27:56;27.07;;;19.60;;
7683;SDS011;3884;48.616;12.872;2023-01-28T04:30:27;26.77;;;18.13;;
7683;SDS011;3884;48.616;12.872;2023-01-28T04:33:06;28.80;;;18.87;;
7683;SDS011;3884;48.616;12.872;2023-01-28T04:35:57;26.80;;;18.73;;
7683;SDS011;3884;48.616;12.872;2023-01-28T04:38:44;25.70;;;18.50;;
7683;SDS011;3884;48.616;12.872;2023-01-28T04:41:25;27.57;;;17.90;;
7683;SDS011;3884;48.616;12.872;2023-01-28T04:43:56;27.07;;;18.30;;
7683;SDS011;3884;48.616;12.872;2023-01-28T04:46:31;27.50;;;18.17;;
7683;SDS011;3884;48.616;12.872;2023-01-28T04:49:21;27.60;;;18.13;;
7683;SDS011;3884;48.616;12.872;2023-01-28T04:52:08;23.90;;;17.20;;
7683;SDS011;3884;48.616;12.872;2023-01-28T04:54:52;24.00;;;17.20;;
7683;SDS011;3884;48.616;12.872;2023-01-28T04:57:20;25.67;;;17.90;;
7683;SDS011;3884;48.616;12.872;2023-01-28T04:59:47;24.37;;;16.93;;
7683;SDS011;3884;48.616;12.872;2023-01-28T05:02:15;24.67;;;16.87;;
7683;SDS011;3884;48.616;12.872;2023-01-28T05:04:43;26.07;;;16.90;;
7683;SDS011;3884;48.616;12.872;2023-01-28T05:07:24;25.07;;;16.17;;
7683;SDS011;3884;48.616;12.872;2023-01-28T05:09:51;22.73;;;17.33;;
7683;SDS011;3884;48.616;12.872;2023-01-28T05:12:18;26.97;;;17.40;;
7683;SDS011;3884;48.616;12.872;2023-01-28T05:14:45;23.47;;;16.77;;
7683;SDS011;3884;48.616;12.872;2023-01-28T05:17:17;23.20;;;16.80;;
7683;SDS011;3884;48.616;12.872;2023-01-28T05:19:44;23.47;;;16.97;;
7683;SDS011;3884;48.616;12.872;2023-01-28T05:22:17;23.27;;;16.73;;
7683;SDS011;3884;48.616;12.872;2023-01-28T05:25:05;22.43;;;16.63;;
7683;SDS011;3884;48.616;12.872;2023-01-28T05:27:33;23.80;;;15.70;;
7683;SDS011;3884;48.616;12.872;2023-01-28T05:30:00;23.83;;;16.93;;
7683;SDS011;3884;48.616;12.872;2023-01-28T05:32:27;22.57;;;15.60;;
7683;SDS011;3884;48.616;12.872;2023-01-28T05:34:54;22.93;;;15.67;;
7683;SDS011;3884;48.616;12.872;2023-01-28T05:37:21;23.43;;;15.77;;
7683;SDS011;3884;48.616;12.872;2023-01-28T05:39:52;19.00;;;15.03;;
7683;SDS011;3884;48.616;12.872;2023-01-28T05:42:21;19.90;;;14.53;;
7683;SDS011;3884;48.616;12.872;2023-01-28T05:44:52;19.47;;;14.93;;
7683;SDS011;3884;48.616;12.872;2023-01-28T05:47:38;22.20;;;16.07;;
7683;SDS011;3884;48.616;12.872;2023-01-28T05:50:24;23.03;;;16.30;;
7683;SDS011;3884;48.616;12.872;2023-01-28T05:53:09;22.17;;;15.70;;
7683;SDS011;3884;48.616;12.872;2023-01-28T05:55:39;22.23;;;15.17;;
7683;SDS011;3884;48.616;12.872;2023-01-28T05:58:08;22.20;;;15.13;;
7683;SDS011;3884;48.616;12.872;2023-01-28T06:00:35;22.70;;;15.50;;
7683;SDS011;3884;48.616;12.872;2023-01-28T06:03:03;24.37;;;16.27;;
7683;SDS011;3884;48.616;12.872;2023-01-28T06:05:33;23.80;;;15.83;;
7683;SDS011;3884;48.616;12.872;2023-01-28T06:08:00;24.77;;;16.77;;
7683;SDS011;3884;48.616;12.872;2023-01-28T06:10:27;23.23;;;16.40;;
7683;SDS011;3884;48.616;12.872;2023-01-28T06:12:54;23.13;;;15.57;;
7683;SDS011;3884;48.616;12.872;2023-01-28T06:15:36;21.97;;;15.57;;
7683;SDS011;3884;48.616;12.872;2023-01-28T06:18:32;29.70;;;20.43;;
7683;SDS011;3884;48.616;12.872;2023-01-28T06:20:59;32.73;;;21.20;;
7683;SDS011;3884;48.616;12.872;2023-01-28T06:23:26;29.93;;;19.23;;
7683;SDS011;3884;48.616;12.872;2023-01-28T06:25:53;33.03;;;21.17;;
7683;SDS011;3884;48.616;12.872;2023-01-28T06:28:21;24.60;;;17.90;;
7683;SDS011;3884;48.616;12.872;2023-01-28T06:30:51;26.67;;;18.70;;
7683;SDS011;3884;48.616;12.872;2023-01-28T06:33:19;25.87;;;18.83;;
7683;SDS011;3884;48.616;12.872;2023-01-28T06:35:46;26.70;;;18.20;;
7683;SDS011;3884;48.616;12.872;2023-01-28T06:38:13;27.63;;;18.47;;
7683;SDS011;3884;48.616;12.872;2023-01-28T06:40:41;24.93;;;16.90;;
7683;SDS011;3884;48.616;12.872;2023-01-28T06:43:07;25.30;;;16.50;;
7683;SDS011;3884;48.616;12.872;2023-01-28T06:45:35;22.50;;;16.27;;
7683;SDS011;3884;48.616;12.872;2023-01-28T06:48:03;26.27;;;17.30;;
7683;SDS011;3884;48.616;12.872;2023-01-28T06:50:31;23.03;;;16.70;;
7683;SDS011;3884;48.616;12.872;2023-01-28T06:52:58;25.30;;;16.17;;
7683;SDS011;3884;48.616;12.872;2023-01-28T06:55:25;24.80;;;17.63;;
7683;SDS011;3884;48.616;12.872;2023-01-28T06:57:52;25.27;;;18.00;;
7683;SDS011;3884;48.616;12.872;2023-01-28T07:00:19;25.17;;;17.00;;
7683;SDS011;3884;48.616;12.872;2023-01-28T07:02:46;22.40;;;17.07;;
7683;SDS011;3884;48.616;12.872;2023-01-28T07:05:15;22.17;;;15.93;;
7683;SDS011;3884;48.616;12.872;2023-01-28T07:07:42;24.53;;;16.83;;
7683;SDS011;3884;48.616;12.872;2023-01-28T07:10:10;24.90;;;16.40;;
7683;SDS011;3884;48.616;12.872;2023-01-28T07:12:37;23.20;;;16.23;;
7683;SDS011;3884;48.616;12.872;2023-01-28T07:15:05;22.50;;;16.13;;
7683;SDS011;3884;48.616;12.872;2023-01-28T07:17:35;22.97;;;15.97;;
7683;SDS011;3884;48.616;12.872;2023-01-28T07:20:04;23.23;;;16.57;;
7683;SDS011;3884;48.616;12.872;2023-01-28T07:22:33;20.60;;;15.37;;
7683;SDS011;3884;48.616;12.872;2023-01-28T07:25:01;21.07;;;15.47;;
7683;SDS011;3884;48.616;12.872;2023-01-28T07:27:29;21.23;;;14.57;;
7683;SDS011;3884;48.616;12.872;2023-01-28T07:29:56;22.03;;;15.80;;
7683;SDS011;3884;48.616;12.872;2023-01-28T07:32:23;22.50;;;16.20;;
7683;SDS011;3884;48.616;12.872;2023-01-28T07:34:51;20.87;;;15.50;;
7683;SDS011;3884;48.616;12.872;2023-01-28T07:37:18;21.10;;;15.00;;
7683;SDS011;3884;48.616;12.872;2023-01-28T07:39:47;23.07;;;15.73;;
7683;SDS011;3884;48.616;12.872;2023-01-28T07:42:14;21.00;;;15.13;;
7683;SDS011;3884;48.616;12.872;2023-01-28T07:44:46;24.93;;;16.43;;
7683;SDS011;3884;48.616;12.872;2023-01-28T07:47:13;23.63;;;15.43;;
7683;SDS011;3884;48.616;12.872;2023-01-28T07:49:41;29.67;;;15.83;;
7683;SDS011;3884;48.616;12.872;2023-01-28T07:52:08;23.97;;;16.70;;
7683;SDS011;3884;48.616;12.872;2023-01-28T07:54:35;23.70;;;16.53;;
7683;SDS011;3884;48.616;12.872;2023-01-28T07:57:06;23.87;;;16.87;;
7683;SDS011;3884;48.616;12.872;2023-01-28T07:59:34;23.00;;;16.90;;
7683;SDS011;3884;48.616;12.872;2023-01-28T08:02:01;40.90;;;25.47;;
7683;SDS011;3884;48.616;12.872;2023-01-28T08:04:29;23.10;;;16.43;;
7683;SDS011;3884;48.616;12.872;2023-01-28T08:06:56;20.77;;;16.13;;
7683;SDS011;3884;48.616;12.872;2023-01-28T08:09:23;24.13;;;17.33;;
7683;SDS011;3884;48.616;12.872;2023-01-28T08:11:50;24.27;;;16.50;;
7683;SDS011;3884;48.616;12.872;2023-01-28T08:14:18;28.00;;;18.83;;
7683;SDS011;3884;48.616;12.872;2023-01-28T08:16:45;27.33;;;17.67;;
7683;SDS011;3884;48.616;12.872;2023-01-28T08:19:12;27.23;;;18.07;;
7683;SDS011;3884;48.616;12.872;2023-01-28T08:21:40;29.33;;;18.90;;
7683;SDS011;3884;48.616;12.872;2023-01-28T08:24:07;24.77;;;17.80;;
7683;SDS011;3884;48.616;12.872;2023-01-28T08:26:34;22.90;;;16.10;;
7683;SDS011;3884;48.616;12.872;2023-01-28T08:29:01;27.47;;;18.03;;
7683;SDS011;3884;48.616;12.872;2023-01-28T08:31:31;27.07;;;18.93;;
7683;SDS011;3884;48.616;12.872;2023-01-28T08:33:58;24.83;;;18.20;;
7683;SDS011;3884;48.616;12.872;2023-01-28T08:36:25;25.00;;;17.70;;
7683;SDS011;3884;48.616;12.872;2023-01-28T08:38:52;27.60;;;18.67;;
7683;SDS011;3884;48.616;12.872;2023-01-28T08:41:19;26.70;;;18.60;;
7683;SDS011;3884;48.616;12.872;2023-01-28T08:43:47;26.13;;;17.43;;
7683;SDS011;3884;48.616;12.872;2023-01-28T08:46:14;27.53;;;18.57;;
7683;SDS011;3884;48.616;12.872;2023-01-28T08:48:43;30.13;;;19.93;;
7683;SDS011;3884;48.616;12.872;2023-01-28T08:51:10;28.83;;;18.87;;
7683;SDS011;3884;48.616;12.872;2023-01-28T08:53:38;28.50;;;19.67;;
7683;SDS011;3884;48.616;12.872;2023-01-28T08:56:05;27.13;;;18.80;;
7683;SDS011;3884;48.616;12.872;2023-01-28T08:58:33;30.37;;;20.03;;
7683;SDS011;3884;48.616;12.872;2023-01-28T09:01:02;28.73;;;18.40;;
7683;SDS011;3884;48.616;12.872;2023-01-28T09:03:30;35.53;;;24.07;;
7683;SDS011;3884;48.616;12.872;2023-01-28T09:06:00;44.67;;;28.97;;
7683;SDS011;3884;48.616;12.872;2023-01-28T09:08:27;46.03;;;30.10;;
7683;SDS011;3884;48.616;12.872;2023-01-28T09:10:54;31.33;;;19.50;;
7683;SDS011;3884;48.616;12.872;2023-01-28T09:13:22;29.17;;;19.90;;
7683;SDS011;3884;48.616;12.872;2023-01-28T09:15:49;24.73;;;17.67;;
7683;SDS011;3884;48.616;12.872;2023-01-28T09:18:17;38.50;;;28.13;;
7683;SDS011;3884;48.616;12.872;2023-01-28T09:20:44;38.47;;;27.50;;
7683;SDS011;3884;48.616;12.872;2023-01-28T09:23:13;27.87;;;18.93;;
7683;SDS011;3884;48.616;12.872;2023-01-28T09:25:40;32.23;;;21.87;;
7683;SDS011;3884;48.616;12.872;2023-01-28T09:28:07;40.73;;;26.13;;
7683;SDS011;3884;48.616;12.872;2023-01-28T09:30:34;43.17;;;29.30;;
7683;SDS011;3884;48.616;12.872;2023-01-28T09:33:03;65.80;;;38.70;;
7683;SDS011;3884;48.616;12.872;2023-01-28T09:35:31;30.60;;;20.70;;
7683;SDS011;3884;48.616;12.872;2023-01-28T09:37:59;27.80;;;18.30;;
7683;SDS011;3884;48.616;12.872;2023-01-28T09:40:30;30.87;;;20.27;;
7683;SDS011;3884;48.616;12.872;2023-01-28T09:43:20;31.63;;;21.80;;
7683;SDS011;3884;48.616;12.872;2023-01-28T09:46:12;29.73;;;20.07;;
7683;SDS011;3884;48.616;12.872;2023-01-28T09:48:43;29.13;;;20.17;;
7683;SDS011;3884;48.616;12.872;2023-01-28T09:51:18;34.27;;;22.70;;
7683;SDS011;3884;48.616;12.872;2023-01-28T09:53:55;28.00;;;18.93;;
7683;SDS011;3884;48.616;12.872;2023-01-28T09:56:27;27.40;;;18.50;;
7683;SDS011;3884;48.616;12.872;2023-01-28T09:58:57;32.50;;;22.77;;
7683;SDS011;3884;48.616;12.872;2023-01-28T10:01:34;31.30;;;20.33;;
7683;SDS011;3884;48.616;12.872;2023-01-28T10:04:12;28.37;;;19.33;;
7683;SDS011;3884;48.616;12.872;2023-01-28T10:06:53;30.40;;;19.37;;
7683;SDS011;3884;48.616;12.872;2023-01-28T10:09:32;28.03;;;20.07;;
7683;SDS011;3884;48.616;12.872;2023-01-28T10:12:14;28.47;;;18.57;;
7683;SDS011;3884;48.616;12.872;2023-01-28T10:14:54;27.27;;;18.90;;
7683;SDS011;3884;48.616;12.872;2023-01-28T10:17:30;28.93;;;18.80;;
7683;SDS011;3884;48.616;12.872;2023-01-28T10:20:02;28.47;;;18.67;;
7683;SDS011;3884;48.616;12.872;2023-01-28T10:22:34;25.40;;;17.93;;
7683;SDS011;3884;48.616;12.872;2023-01-28T10:25:06;26.93;;;18.07;;
7683;SDS011;3884;48.616;12.872;2023-01-28T10:27:43;26.90;;;17.93;;
7683;SDS011;3884;48.616;12.872;2023-01-28T10:30:15;28.17;;;17.83;;
7683;SDS011;3884;48.616;12.872;2023-01-28T10:32:45;26.70;;;17.80;;
7683;SDS011;3884;48.616;12.872;2023-01-28T10:35:17;27.00;;;17.47;;
7683;SDS011;3884;48.616;12.872;2023-01-28T10:37:44;28.43;;;18.57;;
7683;SDS011;3884;48.616;12.872;2023-01-28T10:40:13;27.00;;;18.23;;
7683;SDS011;3884;48.616;12.872;2023-01-28T10:42:41;29.73;;;18.57;;
7683;SDS011;3884;48.616;12.872;2023-01-28T10:45:14;29.77;;;19.83;;
7683;SDS011;3884;48.616;12.872;2023-01-28T10:47:47;26.07;;;17.37;;
7683;SDS011;3884;48.616;12.872;2023-01-28T10:50:21;33.50;;;20.27;;
7683;SDS011;3884;48.616;12.872;2023-01-28T10:52:51;34.40;;;23.17;;
7683;SDS011;3884;48.616;12.872;2023-01-28T10:55:19;28.53;;;19.37;;
7683;SDS011;3884;48.616;12.872;2023-01-28T10:57:47;28.57;;;17.93;;
7683;SDS011;3884;48.616;12.872;2023-01-28T11:00:22;26.60;;;17.53;;
7683;SDS011;3884;48.616;12.872;2023-01-28T11:02:52;28.43;;;18.90;;
7683;SDS011;3884;48.616;12.872;2023-01-28T11:05:20;28.73;;;19.33;;
7683;SDS011;3884;48.616;12.872;2023-01-28T11:08:01;27.53;;;19.27;;
7683;SDS011;3884;48.616;12.872;2023-01-28T11:10:30;32.93;;;21.50;;
7683;SDS011;3884;48.616;12.872;2023-01-28T11:12:59;27.63;;;19.50;;
7683;SDS011;3884;48.616;12.872;2023-01-28T11:15:29;31.77;;;20.37;;
7683;SDS011;3884;48.616;12.872;2023-01-28T11:17:58;35.33;;;21.27;;
7683;SDS011;3884;48.616;12.872;2023-01-28T11:20:29;28.97;;;18.87;;
7683;SDS011;3884;48.616;12.872;2023-01-28T11:23:00;30.80;;;19.43;;
7683;SDS011;3884;48.616;12.872;2023-01-28T11:25:28;26.70;;;17.80;;
7683;SDS011;3884;48.616;12.872;2023-01-28T11:27:57;33.43;;;21.83;;
7683;SDS011;3884;48.616;12.872;2023-01-28T11:30:27;34.27;;;22.47;;
7683;SDS011;3884;48.616;12.872;2023-01-28T11:32:59;34.43;;;21.30;;
7683;SDS011;3884;48.616;12.872;2023-01-28T11:35:30;53.17;;;28.17;;
7683;SDS011;3884;48.616;12.872;2023-01-28T11:37:58;38.40;;;22.37;;
7683;SDS011;3884;48.616;12.872;2023-01-28T11:40:26;30.83;;;20.07;;
7683;SDS011;3884;48.616;12.872;2023-01-28T11:42:53;30.90;;;20.27;;
7683;SDS011;3884;48.616;12.872;2023-01-28T11:45:24;33.37;;;21.20;;
7683;SDS011;3884;48.616;12.872;2023-01-28T11:48:06;34.10;;;22.10;;
7683;SDS011;3884;48.616;12.872;2023-01-28T11:50:46;29.00;;;18.63;;
7683;SDS011;3884;48.616;12.872;2023-01-28T11:53:23;31.93;;;20.77;;
7683;SDS011;3884;48.616;12.872;2023-01-28T11:59:36;30.97;;;19.90;;
7683;SDS011;3884;48.616;12.872;2023-01-28T12:02:17;32.93;;;19.07;;
7683;SDS011;3884;48.616;12.872;2023-01-28T12:05:11;32.70;;;20.80;;
7683;SDS011;3884;48.616;12.872;2023-01-28T12:07:47;32.57;;;19.93;;
7683;SDS011;3884;48.616;12.872;2023-01-28T12:10:23;30.40;;;20.37;;
7683;SDS011;3884;48.616;12.872;2023-01-28T12:12:58;32.80;;;19.53;;
7683;SDS011;3884;48.616;12.872;2023-01-28T12:15:50;32.17;;;20.67;;
7683;SDS011;3884;48.616;12.872;2023-01-28T12:21:30;34.80;;;21.87;;
7683;SDS011;3884;48.616;12.872;2023-01-28T12:24:09;30.50;;;19.90;;
7683;SDS011;3884;48.616;12.872;2023-01-28T12:26:48;29.93;;;18.77;;
7683;SDS011;3884;48.616;12.872;2023-01-28T12:29:21;32.60;;;19.93;;
7683;SDS011;3884;48.616;12.872;2023-01-28T12:34:56;35.63;;;20.90;;
7683;SDS011;3884;48.616;12.872;2023-01-28T12:37:42;34.50;;;21.00;;
7683;SDS011;3884;48.616;12.872;2023-01-28T12:40:26;35.97;;;20.93;;
7683;SDS011;3884;48.616;12.872;2023-01-28T12:43:10;31.43;;;20.33;;
7683;SDS011;3884;48.616;12.872;2023-01-28T12:45:43;37.00;;;23.37;;
7683;SDS011;3884;48.616;12.872;2023-01-28T12:48:13;67.90;;;42.70;;
7683;SDS011;3884;48.616;12.872;2023-01-28T12:50:45;52.17;;;35.07;;
7683;SDS011;3884;48.616;12.872;2023-01-28T12:53:18;44.67;;;31.90;;
7683;SDS011;3884;48.616;12.872;2023-01-28T12:55:52;34.27;;;21.23;;
7683;SDS011;3884;48.616;12.872;2023-01-28T12:58:30;37.67;;;23.17;;
7683;SDS011;3884;48.616;12.872;2023-01-28T13:01:04;34.10;;;20.77;;
7683;SDS011;3884;48.616;12.872;2023-01-28T13:03:37;31.90;;;20.63;;
7683;SDS011;3884;48.616;12.872;2023-01-28T13:06:07;30.43;;;20.77;;
7683;SDS011;3884;48.616;12.872;2023-01-28T13:08:40;32.43;;;20.33;;
7683;SDS011;3884;48.616;12.872;2023-01-28T13:11:09;32.07;;;20.13;;
7683;SDS011;3884;48.616;12.872;2023-01-28T13:13:41;31.73;;;21.03;;
7683;SDS011;3884;48.616;12.872;2023-01-28T13:16:10;31.20;;;20.13;;
7683;SDS011;3884;48.616;12.872;2023-01-28T13:18:42;29.30;;;19.03;;
7683;SDS011;3884;48.616;12.872;2023-01-28T13:21:12;31.03;;;20.97;;
7683;SDS011;3884;48.616;12.872;2023-01-28T13:23:43;31.93;;;19.17;;
7683;SDS011;3884;48.616;12.872;2023-01-28T13:26:26;26.90;;;18.37;;
7683;SDS011;3884;48.616;12.872;2023-01-28T13:29:06;27.93;;;18.00;;
7683;SDS011;3884;48.616;12.872;2023-01-28T13:31:42;25.47;;;17.30;;
7683;SDS011;3884;48.616;12.872;2023-01-28T13:34:24;26.60;;;17.57;;
7683;SDS011;3884;48.616;12.872;2023-01-28T13:36:54;26.70;;;16.70;;
7683;SDS011;3884;48.616;12.872;2023-01-28T13:39:24;28.73;;;17.93;;
7683;SDS011;3884;48.616;12.872;2023-01-28T13:41:53;26.40;;;17.43;;
7683;SDS011;3884;48.616;12.872;2023-01-28T13:44:33;25.80;;;17.57;;
7683;SDS011;3884;48.616;12.872;2023-01-28T13:47:11;29.67;;;18.07;;
7683;SDS011;3884;48.616;12.872;2023-01-28T13:49:43;26.30;;;16.80;;
7683;SDS011;3884;48.616;12.872;2023-01-28T13:52:13;28.27;;;17.30;;
7683;SDS011;3884;48.616;12.872;2023-01-28T13:54:44;26.50;;;17.70;;
7683;SDS011;3884;48.616;12.872;2023-01-28T13:57:26;29.73;;;18.37;;
7683;SDS011;3884;48.616;12.872;2023-01-28T14:00:18;26.77;;;17.40;;
7683;SDS011;3884;48.616;12.872;2023-01-28T14:02:56;26.60;;;17.63;;
7683;SDS011;3884;48.616;12.872;2023-01-28T14:05:48;29.30;;;18.10;;
7683;SDS011;3884;48.616;12.872;2023-01-28T14:08:53;30.40;;;18.90;;
7683;SDS011;3884;48.616;12.872;2023-01-28T14:11:48;33.87;;;21.07;;
7683;SDS011;3884;48.616;12.872;2023-01-28T14:14:57;40.07;;;23.70;;
7683;SDS011;3884;48.616;12.872;2023-01-28T14:17:38;30.27;;;19.47;;
7683;SDS011;3884;48.616;12.872;2023-01-28T14:20:13;38.43;;;22.70;;
7683;SDS011;3884;48.616;12.872;2023-01-28T14:22:45;37.63;;;22.60;;
7683;SDS011;3884;48.616;12.872;2023-01-28T14:25:14;34.10;;;20.10;;
7683;SDS011;3884;48.616;12.872;2023-01-28T14:27:47;29.07;;;19.03;;
7683;SDS011;3884;48.616;12.872;2023-01-28T14:30:19;29.93;;;18.57;;
7683;SDS011;3884;48.616;12.872;2023-01-28T14:32:50;31.67;;;19.90;;
7683;SDS011;3884;48.616;12.872;2023-01-28T14:35:21;28.70;;;19.23;;
7683;SDS011;3884;48.616;12.872;2023-01-28T14:37:52;27.90;;;18.10;;
7683;SDS011;3884;48.616;12.872;2023-01-28T14:40:20;26.17;;;18.07;;
7683;SDS011;3884;48.616;12.872;2023-01-28T14:42:49;25.47;;;16.77;;
7683;SDS011;3884;48.616;12.872;2023-01-28T14:45:22;28.13;;;17.10;;
7683;SDS011;3884;48.616;12.872;2023-01-28T14:48:21;25.67;;;17.17;;
7683;SDS011;3884;48.616;12.872;2023-01-28T14:50:59;25.27;;;16.90;;
7683;SDS011;3884;48.616;12.872;2023-01-28T14:53:48;28.47;;;18.57;;
7683;SDS011;3884;48.616;12.872;2023-01-28T14:56:28;27.80;;;18.63;;
7683;SDS011;3884;48.616;12.872;2023-01-28T14:59:06;22.67;;;15.03;;
7683;SDS011;3884;48.616;12.872;2023-01-28T15:01:43;30.10;;;19.47;;
7683;SDS011;3884;48.616;12.872;2023-01-28T15:04:25;26.77;;;17.40;;
7683;SDS011;3884;48.616;12.872;2023-01-28T15:06:53;25.83;;;16.73;;
7683;SDS011;3884;48.616;12.872;2023-01-28T15:09:21;26.33;;;20.27;;
7683;SDS011;3884;48.616;12.872;2023-01-28T15:11:49;25.50;;;17.93;;
7683;SDS011;3884;48.616;12.872;2023-01-28T15:14:23;24.07;;;16.60;;
7683;SDS011;3884;48.616;12.872;2023-01-28T15:16:52;23.30;;;15.80;;
7683;SDS011;3884;48.616;12.872;2023-01-28T15:19:23;23.47;;;15.57;;